createdAt,value
2023-04-03T00:00:33.555Z,5.75
2023-04-03T00:03:00.662Z,5.77
2023-04-03T00:05:27.636Z,5.72
2023-04-03T00:07:56.174Z,5.62
2023-04-03T00:10:23.027Z,5.60
2023-04-03T00:12:49.967Z,5.58
2023-04-03T00:15:17.039Z,5.57
2023-04-03T00:17:44.102Z,5.66
2023-04-03T00:20:11.397Z,5.68
2023-04-03T00:22:38.398Z,5.70
2023-04-03T00:25:08.199Z,5.67
2023-04-03T00:27:37.317Z,5.63
2023-04-03T00:30:05.435Z,5.57
2023-04-03T00:32:32.524Z,5.46
2023-04-03T00:34:59.522Z,5.28
2023-04-03T00:37:26.616Z,5.25
2023-04-03T00:39:53.665Z,5.26
2023-04-03T00:42:22.299Z,5.21
2023-04-03T00:45:23.565Z,5.26
2023-04-03T00:47:50.990Z,5.21
2023-04-03T00:50:18.177Z,5.21
2023-04-03T00:52:47.645Z,5.23
2023-04-03T00:55:15.410Z,5.28
2023-04-03T00:57:43.848Z,5.30
2023-04-03T01:00:14.657Z,5.37
2023-04-03T01:02:44.337Z,5.36
2023-04-03T01:05:13.707Z,5.39
2023-04-03T01:07:41.258Z,5.36
2023-04-03T01:10:11.803Z,5.37
2023-04-03T01:12:41.449Z,5.43
2023-04-03T01:15:17.992Z,5.44
2023-04-03T01:17:46.878Z,5.45
2023-04-03T01:20:51.974Z,5.52
2023-04-03T01:24:01.244Z,5.54
2023-04-03T01:26:29.499Z,5.44
2023-04-03T01:28:56.628Z,5.37
2023-04-03T01:31:27.523Z,5.33
2023-04-03T01:33:57.506Z,5.30
2023-04-03T01:36:27.159Z,5.20
2023-04-03T01:38:55.714Z,5.26
2023-04-03T01:41:23.530Z,5.31
2023-04-03T01:43:53.095Z,5.37
2023-04-03T01:46:21.161Z,5.35
2023-04-03T01:48:48.717Z,5.28
2023-04-03T01:51:17.192Z,5.27
2023-04-03T01:53:44.329Z,5.25
2023-04-03T01:56:11.376Z,5.25
2023-04-03T01:58:38.461Z,5.20
2023-04-03T02:01:05.704Z,5.13
2023-04-03T02:03:32.753Z,5.18
2023-04-03T02:05:59.783Z,5.09
2023-04-03T02:08:28.408Z,5.08
2023-04-03T02:10:55.348Z,5.04
2023-04-03T02:13:22.415Z,4.94
2023-04-03T02:15:50.179Z,4.79
2023-04-03T02:18:17.873Z,4.79
2023-04-03T02:20:45.041Z,4.73
2023-04-03T02:23:12.141Z,4.74
2023-04-03T02:25:40.658Z,4.70
2023-04-03T02:28:07.672Z,4.69
2023-04-03T02:30:34.889Z,4.69
2023-04-03T02:33:02.123Z,4.52
2023-04-03T02:35:29.264Z,4.36
2023-04-03T02:37:58.293Z,4.41
2023-04-03T02:40:25.592Z,4.43
2023-04-03T02:42:54.042Z,4.39
2023-04-03T02:45:23.022Z,4.27
2023-04-03T02:47:50.051Z,4.21
2023-04-03T02:50:17.185Z,4.17
2023-04-03T02:52:44.310Z,4.13
2023-04-03T02:55:14.783Z,4.09
2023-04-03T02:57:41.820Z,4.07
2023-04-03T03:00:12.436Z,4.04
2023-04-03T03:02:39.706Z,3.99
2023-04-03T03:05:07.537Z,4.01
2023-04-03T03:07:34.640Z,4.05
2023-04-03T03:10:01.719Z,4.07
2023-04-03T03:12:28.705Z,3.96
2023-04-03T03:14:56.682Z,4.03
2023-04-03T03:17:25.131Z,3.93
2023-04-03T03:19:52.107Z,3.92
2023-04-03T03:22:19.716Z,3.90
2023-04-03T03:24:46.620Z,3.93
2023-04-03T03:27:13.573Z,4.01
2023-04-03T03:29:40.695Z,4.00
2023-04-03T03:32:08.037Z,3.91
2023-04-03T03:34:36.524Z,3.96
2023-04-03T03:37:03.548Z,3.99
2023-04-03T03:39:30.762Z,3.99
2023-04-03T03:41:57.794Z,4.09
2023-04-03T03:44:25.026Z,4.13
2023-04-03T03:46:53.683Z,4.13
2023-04-03T03:49:21.015Z,4.12
2023-04-03T03:51:51.818Z,4.12
2023-04-03T03:54:19.028Z,4.13
2023-04-03T03:56:46.388Z,4.13
2023-04-03T03:59:13.693Z,4.13
2023-04-03T04:01:41.102Z,4.16
2023-04-03T04:04:08.948Z,4.21
2023-04-03T04:06:36.528Z,4.24
2023-04-03T04:09:07.675Z,4.25
2023-04-03T04:11:34.935Z,4.30
2023-04-03T04:14:02.761Z,4.27
2023-04-03T04:16:31.008Z,4.25
2023-04-03T04:19:02.816Z,4.23
2023-04-03T04:21:30.772Z,4.33
2023-04-03T04:23:57.967Z,4.38
2023-04-03T04:26:27.165Z,4.39
2023-04-03T04:28:54.140Z,4.42
2023-04-03T04:31:21.596Z,4.38
2023-04-03T04:33:49.393Z,4.39
2023-04-03T04:36:17.157Z,4.41
2023-04-03T04:38:46.769Z,4.44
2023-04-03T04:41:14.414Z,4.53
2023-04-03T04:43:42.872Z,4.58
2023-04-03T04:46:14.808Z,4.60
2023-04-03T04:48:46.965Z,4.69
2023-04-03T04:51:14.645Z,4.83
2023-04-03T04:53:42.568Z,4.83
2023-04-03T04:56:12.531Z,4.91
2023-04-03T04:58:42.192Z,4.96
2023-04-03T05:01:09.954Z,5.04
2023-04-03T05:03:44.283Z,5.05
2023-04-03T05:06:11.718Z,5.06
2023-04-03T05:08:39.001Z,5.21
2023-04-03T05:11:06.514Z,5.34
2023-04-03T05:13:34.692Z,5.48
2023-04-03T05:16:04.063Z,5.61
2023-04-03T05:18:31.121Z,5.75
2023-04-03T05:21:00.822Z,5.85
2023-04-03T05:23:27.839Z,5.94
2023-04-03T05:25:56.141Z,6.08
2023-04-03T05:28:23.843Z,6.11
2023-04-03T05:30:55.438Z,6.18
2023-04-03T05:33:25.083Z,6.30
2023-04-03T05:35:54.077Z,6.44
2023-04-03T05:38:26.022Z,6.51
2023-04-03T05:40:55.029Z,6.61
2023-04-03T05:43:22.150Z,6.71
2023-04-03T05:45:50.781Z,6.75
2023-04-03T05:48:17.953Z,6.80
2023-04-03T05:50:47.109Z,6.90
2023-04-03T05:53:23.798Z,7.02
2023-04-03T05:55:51.200Z,7.14
2023-04-03T05:58:18.568Z,7.25
2023-04-03T06:00:48.156Z,7.39
2023-04-03T06:03:15.280Z,7.56
2023-04-03T06:05:43.466Z,7.70
2023-04-03T06:08:13.617Z,7.82
2023-04-03T06:10:41.003Z,7.96
2023-04-03T06:13:09.001Z,8.07
2023-04-03T06:15:36.109Z,8.18
2023-04-03T06:18:03.373Z,8.30
2023-04-03T06:20:32.178Z,8.36
2023-04-03T06:22:59.417Z,8.45
2023-04-03T06:25:29.385Z,8.56
2023-04-03T06:27:58.862Z,8.66
2023-04-03T06:30:25.854Z,8.72
2023-04-03T06:32:53.278Z,8.72
2023-04-03T06:35:20.574Z,8.77
2023-04-03T06:37:47.673Z,8.84
2023-04-03T06:40:19.773Z,8.96
2023-04-03T06:42:48.355Z,9.07
2023-04-03T06:45:17.437Z,9.14
2023-04-03T06:47:44.594Z,9.24
2023-04-03T06:50:15.047Z,9.35
2023-04-03T06:52:42.315Z,9.42
2023-04-03T06:55:10.406Z,9.51
2023-04-03T06:57:37.880Z,9.51
2023-04-03T07:00:08.368Z,9.58
2023-04-03T07:02:35.756Z,9.66
2023-04-03T07:05:03.241Z,9.78
2023-04-03T07:07:30.434Z,9.83
2023-04-03T07:09:57.357Z,9.88
2023-04-03T07:12:24.300Z,9.94
2023-04-03T07:14:51.728Z,10.01
2023-04-03T07:17:20.145Z,10.10
2023-04-03T07:19:46.864Z,10.16
2023-04-03T07:22:14.135Z,10.21
2023-04-03T07:24:41.415Z,10.29
2023-04-03T07:27:09.495Z,10.35
2023-04-03T07:29:36.689Z,10.35
2023-04-03T07:32:03.985Z,10.36
2023-04-03T07:34:32.473Z,10.43
2023-04-03T07:36:59.281Z,10.56
2023-04-03T07:39:26.620Z,10.66
2023-04-03T07:41:53.622Z,10.76
2023-04-03T07:44:20.639Z,10.92
2023-04-03T07:46:48.094Z,11.04
2023-04-03T07:49:15.157Z,11.12
2023-04-03T07:51:43.623Z,11.19
2023-04-03T07:54:10.589Z,11.27
2023-04-03T07:56:37.723Z,11.32
2023-04-03T07:59:04.680Z,11.28
2023-04-03T08:01:33.586Z,11.29
2023-04-03T08:04:01.059Z,11.43
2023-04-03T08:06:44.991Z,11.55
2023-04-03T08:09:15.499Z,11.56
2023-04-03T08:11:42.637Z,11.62
2023-04-03T08:14:12.053Z,11.58
2023-04-03T08:16:39.198Z,11.63
2023-04-03T08:19:09.702Z,11.64
2023-04-03T08:21:45.380Z,11.83
2023-04-03T08:24:12.498Z,11.93
2023-04-03T08:26:41.301Z,12.05
2023-04-03T08:29:08.315Z,12.15
2023-04-03T08:31:35.291Z,12.13
2023-04-03T08:34:02.445Z,12.23
2023-04-03T08:36:30.551Z,12.33
2023-04-03T08:38:58.324Z,12.34
2023-04-03T08:41:33.907Z,12.33
2023-04-03T08:44:14.688Z,12.26
2023-04-03T08:46:55.373Z,12.40
2023-04-03T08:49:27.476Z,12.30
2023-04-03T08:51:55.621Z,12.47
2023-04-03T08:54:26.992Z,12.59
2023-04-03T08:56:54.060Z,12.82
2023-04-03T08:59:27.771Z,12.81
2023-04-03T09:01:55.380Z,12.91
2023-04-03T09:04:22.430Z,12.88
2023-04-03T09:06:53.897Z,13.04
2023-04-03T09:09:32.243Z,13.19
2023-04-03T09:12:10.175Z,13.27
2023-04-03T09:14:40.830Z,13.38
2023-04-03T09:17:16.396Z,13.49
2023-04-03T09:19:49.546Z,13.48
2023-04-03T09:22:20.101Z,13.60
2023-04-03T09:24:48.575Z,13.73
2023-04-03T09:27:15.664Z,13.82
2023-04-03T09:29:47.142Z,13.88
2023-04-03T09:32:22.526Z,13.84
2023-04-03T09:34:51.632Z,13.81
2023-04-03T09:37:41.313Z,13.87
2023-04-03T09:40:36.302Z,13.69
2023-04-03T09:43:10.745Z,13.32
2023-04-03T09:45:39.099Z,13.23
2023-04-03T09:48:15.287Z,13.08
2023-04-03T09:51:00.476Z,12.89
2023-04-03T09:53:34.496Z,12.94
2023-04-03T09:56:04.369Z,13.12
2023-04-03T09:58:46.977Z,13.24
2023-04-03T10:01:30.221Z,13.26
2023-04-03T10:04:06.411Z,13.33
2023-04-03T10:06:36.637Z,13.42
2023-04-03T10:09:06.241Z,13.51
2023-04-03T10:11:33.654Z,13.52
2023-04-03T10:14:02.646Z,13.52
2023-04-03T10:16:38.778Z,13.21
2023-04-03T10:19:32.273Z,13.24
2023-04-03T10:22:01.772Z,13.30
2023-04-03T10:24:35.155Z,13.34
2023-04-03T10:27:07.531Z,13.26
2023-04-03T10:29:42.128Z,13.20
2023-04-03T10:32:17.714Z,13.10
2023-04-03T10:34:54.695Z,12.94
2023-04-03T10:37:37.642Z,12.67
2023-04-03T10:40:14.770Z,12.53
2023-04-03T10:42:47.766Z,12.24
2023-04-03T10:45:22.707Z,12.21
2023-04-03T10:48:00.014Z,12.03
2023-04-03T10:50:44.323Z,12.08
2023-04-03T10:53:18.257Z,12.10
2023-04-03T10:55:49.461Z,12.04
2023-04-03T10:58:21.680Z,12.09
2023-04-03T11:00:50.256Z,12.11
2023-04-03T11:03:26.776Z,12.15
2023-04-03T11:05:55.011Z,12.05
2023-04-03T11:08:26.324Z,11.93
2023-04-03T11:10:55.617Z,11.89
2023-04-03T11:13:26.321Z,11.75
2023-04-03T11:15:55.066Z,11.57
2023-04-03T11:18:27.664Z,11.46
2023-04-03T11:21:02.186Z,11.39
2023-04-03T11:23:45.811Z,11.29
2023-04-03T11:26:16.160Z,11.14
2023-04-03T11:28:43.475Z,11.05
2023-04-03T11:31:17.225Z,11.06
2023-04-03T11:33:52.720Z,11.09
2023-04-03T11:36:29.865Z,11.10
2023-04-03T11:39:00.325Z,11.08
2023-04-03T11:41:29.833Z,11.16
2023-04-03T11:43:59.056Z,11.13
2023-04-03T11:46:50.509Z,11.10
2023-04-03T11:49:50.603Z,11.19
2023-04-03T11:52:57.936Z,11.17
2023-04-03T11:55:53.874Z,11.10
2023-04-03T11:58:22.274Z,10.96
2023-04-03T12:00:52.604Z,10.86
2023-04-03T12:04:01.507Z,10.79
2023-04-03T12:07:05.344Z,10.61
2023-04-03T12:10:18.320Z,10.19
2023-04-03T12:13:00.854Z,10.01
2023-04-03T12:15:51.034Z,9.82
2023-04-03T12:18:57.868Z,9.77
2023-04-03T12:21:25.795Z,9.74
2023-04-03T12:24:05.013Z,9.84
2023-04-03T12:26:45.985Z,9.77
2023-04-03T12:29:19.620Z,9.72
2023-04-03T12:31:55.109Z,9.62
2023-04-03T12:34:35.221Z,9.45
2023-04-03T12:37:07.796Z,9.24
2023-04-03T12:39:49.745Z,9.11
2023-04-03T12:42:38.952Z,9.11
2023-04-03T12:45:14.412Z,9.09
2023-04-03T12:47:44.093Z,9.11
2023-04-03T12:50:22.439Z,9.06
2023-04-03T12:52:53.916Z,8.95
2023-04-03T12:55:21.888Z,8.95
2023-04-03T12:57:50.256Z,9.05
2023-04-03T13:00:40.323Z,9.07
2023-04-03T13:03:16.585Z,9.13
2023-04-03T13:05:45.979Z,9.17
2023-04-03T13:08:16.025Z,9.18
2023-04-03T13:10:52.570Z,9.15
2023-04-03T13:13:21.085Z,9.10
2023-04-03T13:15:53.825Z,9.06
2023-04-03T13:18:26.593Z,8.98
2023-04-03T13:20:54.980Z,8.83
2023-04-03T13:23:23.810Z,8.78
2023-04-03T13:25:51.917Z,8.63
2023-04-03T13:28:23.650Z,8.54
2023-04-03T13:31:04.122Z,8.56
2023-04-03T13:33:33.894Z,8.43
2023-04-03T13:36:04.348Z,8.33
2023-04-03T13:38:34.110Z,8.29
2023-04-03T13:41:04.183Z,8.18
2023-04-03T13:43:34.325Z,8.06
2023-04-03T13:46:06.275Z,8.06
2023-04-03T13:48:38.700Z,7.98
2023-04-03T13:51:07.120Z,7.93
2023-04-03T13:53:35.704Z,7.94
2023-04-03T13:56:07.602Z,7.93
2023-04-03T13:58:37.173Z,7.84
2023-04-03T14:01:10.806Z,7.84
2023-04-03T14:03:42.807Z,7.82
2023-04-03T14:06:12.702Z,7.90
2023-04-03T14:08:43.283Z,7.96
2023-04-03T14:11:14.702Z,7.93
2023-04-03T14:13:44.069Z,7.89
2023-04-03T14:16:16.335Z,7.92
2023-04-03T14:18:44.531Z,7.93
2023-04-03T14:21:13.185Z,8.01
2023-04-03T14:23:40.476Z,8.07
2023-04-03T14:26:11.917Z,8.07
2023-04-03T14:28:42.245Z,7.98
2023-04-03T14:31:13.169Z,7.97
2023-04-03T14:33:41.268Z,7.93
2023-04-03T14:36:13.909Z,7.92
2023-04-03T14:38:42.293Z,7.90
2023-04-03T14:41:16.414Z,7.84
2023-04-03T14:43:45.509Z,7.76
2023-04-03T14:46:16.884Z,7.69
2023-04-03T14:48:43.949Z,7.62
2023-04-03T14:51:11.895Z,7.59
2023-04-03T14:53:39.554Z,7.51
2023-04-03T14:56:12.817Z,7.44
2023-04-03T14:58:39.833Z,7.42
2023-04-03T15:01:07.497Z,7.38
2023-04-03T15:03:36.280Z,7.33
2023-04-03T15:06:03.655Z,7.26
2023-04-03T15:08:30.992Z,7.31
2023-04-03T15:10:58.173Z,7.35
2023-04-03T15:13:26.454Z,7.33
2023-04-03T15:15:53.951Z,7.33
2023-04-03T15:18:23.784Z,7.35
2023-04-03T15:20:52.211Z,7.37
2023-04-03T15:23:19.644Z,7.32
2023-04-03T15:25:48.013Z,7.29
2023-04-03T15:28:19.991Z,7.29
2023-04-03T15:30:47.183Z,7.33
2023-04-03T15:33:14.490Z,7.31
2023-04-03T15:35:41.934Z,7.38
2023-04-03T15:38:11.041Z,7.44
2023-04-03T15:40:38.494Z,7.37
2023-04-03T15:43:06.252Z,7.30
2023-04-03T15:45:34.987Z,7.37
2023-04-03T15:48:02.743Z,7.46
2023-04-03T15:50:29.828Z,7.53
2023-04-03T15:52:58.863Z,7.55
2023-04-03T15:55:27.818Z,7.53
2023-04-03T15:57:55.104Z,7.44
2023-04-03T16:00:23.247Z,7.48
2023-04-03T16:02:52.847Z,7.40
2023-04-03T16:05:20.798Z,7.41
2023-04-03T16:07:47.993Z,7.32
2023-04-03T16:10:16.169Z,7.18
2023-04-03T16:12:44.910Z,7.13
2023-04-03T16:15:13.283Z,7.13
2023-04-03T16:17:42.279Z,7.11
2023-04-03T16:20:11.426Z,7.10
2023-04-03T16:22:38.435Z,7.11
2023-04-03T16:25:06.920Z,6.97
2023-04-03T16:27:33.993Z,6.93
2023-04-03T16:30:02.704Z,6.88
2023-04-03T16:32:31.762Z,6.82
2023-04-03T16:34:59.473Z,6.81
2023-04-03T16:37:27.247Z,6.84
2023-04-03T16:39:55.738Z,6.86
2023-04-03T16:42:22.845Z,6.86
2023-04-03T16:44:49.809Z,6.87
2023-04-03T16:47:20.334Z,6.86
2023-04-03T16:49:48.170Z,6.82
2023-04-03T16:52:15.689Z,6.83
2023-04-03T16:54:42.804Z,6.82
2023-04-03T16:57:09.907Z,6.86
2023-04-03T16:59:36.909Z,6.90
2023-04-03T17:02:04.106Z,6.92
2023-04-03T17:04:32.449Z,6.97
2023-04-03T17:07:01.101Z,6.91
2023-04-03T17:09:27.921Z,6.95
2023-04-03T17:11:55.053Z,7.04
2023-04-03T17:14:22.000Z,7.11
2023-04-03T17:16:49.180Z,7.21
2023-04-03T17:19:17.910Z,7.22
2023-04-03T17:21:46.810Z,7.21
2023-04-03T17:26:59.628Z,7.17
2023-04-03T17:29:26.614Z,7.19
2023-04-03T17:31:53.622Z,7.21
2023-04-03T17:34:21.036Z,7.23
2023-04-03T17:36:49.409Z,7.19
2023-04-03T17:39:16.560Z,7.16
2023-04-03T17:41:45.951Z,7.08
2023-04-03T17:44:13.002Z,7.11
2023-04-03T17:46:39.977Z,7.06
2023-04-03T17:49:07.039Z,7.02
2023-04-03T17:51:34.596Z,6.98
2023-04-03T17:54:03.156Z,6.95
2023-04-03T17:56:30.141Z,6.96
2023-04-03T17:58:58.617Z,7.00
2023-04-03T18:01:26.539Z,7.00
2023-04-03T18:03:54.996Z,6.96
2023-04-03T18:06:24.457Z,6.87
2023-04-03T18:08:53.746Z,6.84
2023-04-03T18:11:23.608Z,6.77
2023-04-03T18:13:50.836Z,6.83
2023-04-03T18:16:17.876Z,6.99
2023-04-03T18:18:45.282Z,7.00
2023-04-03T18:21:14.127Z,6.95
2023-04-03T18:23:43.763Z,6.95
2023-04-03T18:26:12.290Z,6.96
2023-04-03T18:28:43.842Z,6.91
2023-04-03T18:31:11.633Z,6.92
2023-04-03T18:33:38.637Z,6.92
2023-04-03T18:36:06.056Z,6.93
2023-04-03T18:38:33.090Z,6.94
2023-04-03T18:41:00.691Z,6.92
2023-04-03T18:43:28.310Z,6.87
2023-04-03T18:45:56.773Z,6.90
2023-04-03T18:48:24.780Z,6.84
2023-04-03T18:50:51.831Z,6.82
2023-04-03T18:53:18.862Z,6.83
2023-04-03T18:55:46.753Z,6.84
2023-04-03T18:58:13.949Z,6.78
2023-04-03T19:00:41.686Z,6.81
2023-04-03T19:03:10.873Z,6.88
2023-04-03T19:05:38.053Z,6.89
2023-04-03T19:08:05.341Z,6.87
2023-04-03T19:10:32.281Z,6.85
2023-04-03T19:12:59.228Z,6.86
2023-04-03T19:15:26.712Z,6.83
2023-04-03T19:17:53.853Z,6.88
2023-04-03T19:20:22.624Z,6.93
2023-04-03T19:22:49.798Z,6.92
2023-04-03T19:25:16.987Z,6.90
2023-04-03T19:27:43.986Z,6.86
2023-04-03T19:30:13.045Z,6.89
2023-04-03T19:32:40.146Z,6.88
2023-04-03T19:35:08.385Z,6.89
2023-04-03T19:37:36.740Z,6.91
2023-04-03T19:40:04.366Z,6.91
2023-04-03T19:42:32.574Z,6.87
2023-04-03T19:44:59.691Z,6.87
2023-04-03T19:47:29.581Z,6.84
2023-04-03T19:49:56.787Z,6.78
2023-04-03T19:52:23.820Z,6.73
2023-04-03T19:54:52.984Z,6.74
2023-04-03T19:57:20.447Z,6.77
2023-04-03T19:59:47.456Z,6.73
2023-04-03T20:02:14.514Z,6.73
2023-04-03T20:04:41.776Z,6.78
2023-04-03T20:07:08.791Z,6.78
2023-04-03T20:09:36.371Z,6.72
2023-04-03T20:12:05.353Z,6.74
2023-04-03T20:14:32.790Z,6.72
2023-04-03T20:16:59.853Z,6.74
2023-04-03T20:19:29.279Z,6.80
2023-04-03T20:21:56.479Z,6.81
2023-04-03T20:24:23.446Z,6.83
2023-04-03T20:26:50.974Z,6.88
2023-04-03T20:29:19.439Z,6.90
2023-04-03T20:31:46.935Z,6.94
2023-04-03T20:34:14.760Z,6.91
2023-04-03T20:36:41.866Z,6.85
2023-04-03T20:39:09.187Z,6.84
2023-04-03T20:41:37.666Z,6.83
2023-04-03T20:44:05.697Z,6.83
2023-04-03T20:46:48.980Z,6.86
2023-04-03T20:49:19.347Z,6.85
2023-04-03T20:51:46.442Z,6.90
2023-04-03T20:54:13.445Z,6.91
2023-04-03T20:56:40.688Z,6.92
2023-04-03T20:59:08.461Z,6.88
2023-04-03T21:01:37.005Z,6.93
2023-04-03T21:04:09.603Z,7.01
2023-04-03T21:07:13.873Z,7.11
2023-04-03T21:10:18.728Z,7.23
2023-04-03T21:13:23.787Z,7.36
2023-04-03T21:15:54.780Z,7.47
2023-04-03T21:18:51.430Z,7.56
2023-04-03T21:21:20.153Z,7.61
2023-04-03T21:23:47.791Z,7.59
2023-04-03T21:26:14.808Z,7.50
2023-04-03T21:28:42.853Z,7.51
2023-04-03T21:31:11.637Z,7.58
2023-04-03T21:33:38.829Z,7.67
2023-04-03T21:36:08.083Z,7.70
2023-04-03T21:38:38.123Z,7.68
2023-04-03T21:41:05.216Z,7.73
2023-04-03T21:43:32.375Z,7.75
2023-04-03T21:46:00.055Z,7.62
2023-04-03T21:48:30.995Z,7.51
2023-04-03T21:51:04.756Z,7.49
2023-04-03T21:53:35.063Z,7.46
2023-04-03T21:56:02.699Z,7.37
2023-04-03T21:58:31.109Z,7.37
2023-04-03T22:00:58.750Z,7.38
2023-04-03T22:03:29.152Z,7.34
2023-04-03T22:05:58.569Z,7.29
2023-04-03T22:08:25.481Z,7.28
2023-04-03T22:11:01.122Z,7.29
2023-04-03T22:13:28.334Z,7.27
2023-04-03T22:15:55.381Z,7.31
2023-04-03T22:18:22.399Z,7.38
2023-04-03T22:20:49.331Z,7.38
2023-04-03T22:23:16.468Z,7.42
2023-04-03T22:25:44.077Z,7.39
2023-04-03T22:28:13.944Z,7.42
2023-04-03T22:30:41.975Z,7.52
2023-04-03T22:33:09.157Z,7.43
2023-04-03T22:35:36.467Z,7.33
2023-04-03T22:38:03.411Z,7.25
2023-04-03T22:40:30.369Z,7.28
2023-04-03T22:42:57.355Z,7.31
2023-04-03T22:45:25.853Z,7.30
2023-04-03T22:47:52.877Z,7.29
2023-04-03T22:50:19.936Z,7.24
2023-04-03T22:52:47.205Z,7.21
2023-04-03T22:55:19.374Z,7.21
2023-04-03T22:57:46.891Z,7.17
2023-04-03T23:00:15.689Z,7.20
2023-04-03T23:02:44.172Z,7.13
2023-04-03T23:05:11.136Z,7.15
2023-04-03T23:07:38.265Z,7.16
2023-04-03T23:10:06.200Z,7.17
2023-04-03T23:12:37.733Z,7.19
2023-04-03T23:15:05.548Z,7.18
2023-04-03T23:17:35.098Z,7.17
2023-04-03T23:20:03.934Z,7.19
2023-04-03T23:22:30.953Z,7.17
2023-04-03T23:24:57.944Z,7.16
2023-04-03T23:27:25.041Z,7.16
2023-04-03T23:29:52.143Z,7.14
2023-04-03T23:32:19.099Z,7.10
2023-04-03T23:34:46.254Z,7.08
2023-04-03T23:37:14.786Z,7.13
2023-04-03T23:39:41.819Z,7.09
2023-04-03T23:42:10.974Z,7.12
2023-04-03T23:44:38.030Z,7.10
2023-04-03T23:47:05.213Z,7.11
2023-04-03T23:49:32.263Z,7.10
2023-04-03T23:51:59.322Z,7.13
2023-04-03T23:54:27.753Z,7.15
2023-04-03T23:56:54.785Z,7.14
2023-04-03T23:59:22.112Z,7.15
